CCA369 ZLXY-ZLDH
Flight info
| Callsign | CCA369 |
|---|---|
| Flight time | 2h 6m |
| Altitude | 32100 |
| Route | TEB9X TEBIB W541 ADNEN W94 QIY DCT JTA DCT ANDIM B215 TODOD TOD09A |
| Aircraft | B738/M-SDE2E3FGHIRWXY/LB1 |
Departure
| Time | 2026-04-20 12:18 |
|---|---|
| Airport | Xi'an Xianyang International Airport (ZLXY) |
Arrival
| Time | 2026-04-20 14:25 |
|---|---|
| Airport | Dunhuang Mogao International Airport (ZLDH) |
| Time | Latitude | Longitude | Altitude | Speed | Heading |
|---|---|---|---|---|---|
| 2026-04-20 11:58 | 34.43293 | 108.75922 | 1575 ft | 0 kts | 323° |
| 2026-04-20 12:07 | 34.43292 | 108.75922 | 1575 ft | 1 kts | 323° |
| 2026-04-20 12:07 | 34.43281 | 108.75933 | 1575 ft | 2 kts | 323° |
| 2026-04-20 12:07 | 34.43269 | 108.75944 | 1575 ft | 2 kts | 323° |
| 2026-04-20 12:08 | 34.43256 | 108.75955 | 1575 ft | 2 kts | 323° |
| 2026-04-20 12:08 | 34.43245 | 108.75966 | 1575 ft | 2 kts | 323° |
| 2026-04-20 12:08 | 34.43237 | 108.75973 | 1575 ft | 2 kts | 319° |
| 2026-04-20 12:08 | 34.43229 | 108.75987 | 1575 ft | 2 kts | 291° |
| 2026-04-20 12:09 | 34.43225 | 108.76005 | 1575 ft | 2 kts | 269° |
| 2026-04-20 12:09 | 34.43228 | 108.76023 | 1575 ft | 2 kts | 247° |
| 2026-04-20 12:09 | 34.43233 | 108.76034 | 1575 ft | 0 kts | 231° |
| 2026-04-20 12:09 | 34.43238 | 108.76041 | 1575 ft | 0 kts | 229° |
| 2026-04-20 12:12 | 34.43235 | 108.76036 | 1575 ft | 1 kts | 230° |
| 2026-04-20 12:12 | 34.43222 | 108.76019 | 1575 ft | 3 kts | 230° |
| 2026-04-20 12:12 | 34.43204 | 108.75993 | 1575 ft | 4 kts | 229° |
| 2026-04-20 12:13 | 34.43182 | 108.75961 | 1575 ft | 5 kts | 229° |
| 2026-04-20 12:13 | 34.43158 | 108.75929 | 1575 ft | 5 kts | 229° |
| 2026-04-20 12:13 | 34.43124 | 108.75896 | 1575 ft | 7 kts | 198° |
| 2026-04-20 12:13 | 34.43066 | 108.75930 | 1575 ft | 11 kts | 139° |
| 2026-04-20 12:14 | 34.43006 | 108.75991 | 1575 ft | 10 kts | 146° |
| 2026-04-20 12:14 | 34.42946 | 108.75963 | 1575 ft | 10 kts | 227° |
| 2026-04-20 12:14 | 34.42896 | 108.75895 | 1575 ft | 11 kts | 229° |
| 2026-04-20 12:14 | 34.42839 | 108.75816 | 1575 ft | 14 kts | 229° |
| 2026-04-20 12:15 | 34.42777 | 108.75738 | 1575 ft | 6 kts | 198° |
| 2026-04-20 12:15 | 34.42753 | 108.75775 | 1575 ft | 9 kts | 123° |
| 2026-04-20 12:15 | 34.42686 | 108.75854 | 1575 ft | 14 kts | 139° |
| 2026-04-20 12:15 | 34.42606 | 108.75935 | 1575 ft | 16 kts | 140° |
| 2026-04-20 12:16 | 34.42524 | 108.75991 | 1575 ft | 11 kts | 194° |
| 2026-04-20 12:16 | 34.42471 | 108.75937 | 1575 ft | 9 kts | 226° |
| 2026-04-20 12:16 | 34.42422 | 108.75935 | 1575 ft | 7 kts | 139° |
| 2026-04-20 12:16 | 34.42381 | 108.75979 | 1575 ft | 7 kts | 138° |
| 2026-04-20 12:17 | 34.42341 | 108.76027 | 1575 ft | 8 kts | 111° |
| 2026-04-20 12:17 | 34.42362 | 108.76100 | 1575 ft | 5 kts | 49° |
| 2026-04-20 12:17 | 34.42365 | 108.76104 | 1575 ft | 3 kts | 49° |
| 2026-04-20 12:17 | 34.42558 | 108.76379 | 1575 ft | 81 kts | 50° |
| 2026-04-20 12:18 | 34.43084 | 108.77114 | 1576 ft | 147 kts | 50° |
| 2026-04-20 12:18 | 34.43884 | 108.78177 | 1710 ft | 186 kts | 50° |
| 2026-04-20 12:18 | 34.44786 | 108.79331 | 2325 ft | 189 kts | 47° |
| 2026-04-20 12:18 | 34.45677 | 108.80428 | 2927 ft | 184 kts | 48° |
| 2026-04-20 12:19 | 34.46576 | 108.81544 | 3556 ft | 189 kts | 48° |
| 2026-04-20 12:19 | 34.47506 | 108.82687 | 4171 ft | 195 kts | 48° |
| 2026-04-20 12:19 | 34.48476 | 108.83865 | 4774 ft | 202 kts | 48° |
| 2026-04-20 12:19 | 34.49495 | 108.85111 | 5265 ft | 216 kts | 48° |
| 2026-04-20 12:20 | 34.50589 | 108.86433 | 5741 ft | 230 kts | 48° |
| 2026-04-20 12:20 | 34.51746 | 108.87822 | 6233 ft | 243 kts | 48° |
| 2026-04-20 12:20 | 34.52983 | 108.89313 | 6729 ft | 257 kts | 47° |
| 2026-04-20 12:20 | 34.54268 | 108.90877 | 7229 ft | 263 kts | 48° |
| 2026-04-20 12:21 | 34.55562 | 108.92437 | 7715 ft | 263 kts | 47° |
| 2026-04-20 12:21 | 34.56863 | 108.94001 | 8199 ft | 266 kts | 47° |
| 2026-04-20 12:21 | 34.58176 | 108.95586 | 8677 ft | 270 kts | 47° |
| 2026-04-20 12:21 | 34.59501 | 108.97189 | 9160 ft | 273 kts | 48° |
| 2026-04-20 12:22 | 34.60855 | 108.98827 | 9656 ft | 273 kts | 48° |
| 2026-04-20 12:22 | 34.62191 | 109.00452 | 10138 ft | 274 kts | 47° |
| 2026-04-20 12:22 | 34.63653 | 109.01986 | 10621 ft | 282 kts | 31° |
| 2026-04-20 12:22 | 34.65528 | 109.02666 | 11104 ft | 290 kts | 1° |
| 2026-04-20 12:23 | 34.67494 | 109.02161 | 11596 ft | 295 kts | 335° |
| 2026-04-20 12:23 | 34.69179 | 109.00745 | 12083 ft | 296 kts | 311° |
| 2026-04-20 12:23 | 34.70238 | 108.98643 | 12565 ft | 300 kts | 286° |
| 2026-04-20 12:23 | 34.70739 | 108.96138 | 13059 ft | 309 kts | 280° |
| 2026-04-20 12:24 | 34.71224 | 108.93563 | 13536 ft | 319 kts | 282° |
| 2026-04-20 12:24 | 34.71774 | 108.90904 | 14027 ft | 329 kts | 282° |
| 2026-04-20 12:24 | 34.72315 | 108.88196 | 14512 ft | 337 kts | 282° |
| 2026-04-20 12:24 | 34.72868 | 108.85411 | 14997 ft | 345 kts | 282° |
| 2026-04-20 12:25 | 34.73444 | 108.82530 | 15490 ft | 352 kts | 282° |
| 2026-04-20 12:25 | 34.74020 | 108.79630 | 15975 ft | 359 kts | 281° |
| 2026-04-20 12:25 | 34.74599 | 108.76683 | 16461 ft | 364 kts | 281° |
| 2026-04-20 12:25 | 34.75238 | 108.73658 | 16947 ft | 370 kts | 285° |
| 2026-04-20 12:26 | 34.76202 | 108.70738 | 17416 ft | 378 kts | 295° |
| 2026-04-20 12:26 | 34.77715 | 108.68117 | 17887 ft | 386 kts | 308° |
| 2026-04-20 12:26 | 34.79538 | 108.65723 | 18366 ft | 390 kts | 310° |
| 2026-04-20 12:26 | 34.81376 | 108.63304 | 18840 ft | 392 kts | 309° |
| 2026-04-20 12:27 | 34.83218 | 108.60811 | 19323 ft | 395 kts | 309° |
| 2026-04-20 12:27 | 34.85058 | 108.58318 | 19801 ft | 396 kts | 309° |
| 2026-04-20 12:27 | 34.86899 | 108.55836 | 20270 ft | 398 kts | 309° |
| 2026-04-20 12:27 | 34.88754 | 108.53337 | 20744 ft | 399 kts | 309° |
| 2026-04-20 12:28 | 34.90619 | 108.50822 | 21215 ft | 400 kts | 308° |
| 2026-04-20 12:28 | 34.92480 | 108.48312 | 21683 ft | 400 kts | 308° |
| 2026-04-20 12:28 | 34.94311 | 108.45828 | 22145 ft | 400 kts | 308° |
| 2026-04-20 12:28 | 34.96179 | 108.43298 | 22612 ft | 399 kts | 308° |
| 2026-04-20 12:29 | 34.98019 | 108.40800 | 23084 ft | 398 kts | 308° |
| 2026-04-20 12:29 | 34.99860 | 108.38303 | 23573 ft | 397 kts | 308° |
| 2026-04-20 12:29 | 35.01702 | 108.35809 | 24058 ft | 395 kts | 308° |
| 2026-04-20 12:29 | 35.03525 | 108.33320 | 24398 ft | 397 kts | 308° |
| 2026-04-20 12:30 | 35.05392 | 108.30774 | 24655 ft | 402 kts | 308° |
| 2026-04-20 12:30 | 35.07265 | 108.28223 | 24914 ft | 407 kts | 308° |
| 2026-04-20 12:30 | 35.09154 | 108.25652 | 25168 ft | 410 kts | 308° |
| 2026-04-20 12:30 | 35.11060 | 108.23052 | 25425 ft | 414 kts | 308° |
| 2026-04-20 12:31 | 35.12983 | 108.20428 | 25678 ft | 417 kts | 308° |
| 2026-04-20 12:31 | 35.14943 | 108.17767 | 25936 ft | 420 kts | 308° |
| 2026-04-20 12:31 | 35.16880 | 108.15117 | 26195 ft | 423 kts | 308° |
| 2026-04-20 12:31 | 35.18835 | 108.12445 | 26448 ft | 425 kts | 308° |
| 2026-04-20 12:32 | 35.20807 | 108.09742 | 26703 ft | 427 kts | 309° |
| 2026-04-20 12:32 | 35.22782 | 108.07030 | 26958 ft | 429 kts | 308° |
| 2026-04-20 12:32 | 35.24768 | 108.04311 | 27218 ft | 430 kts | 309° |
| 2026-04-20 12:32 | 35.26758 | 108.01592 | 27474 ft | 432 kts | 308° |
| 2026-04-20 12:33 | 35.28784 | 107.98815 | 27732 ft | 433 kts | 308° |
| 2026-04-20 12:33 | 35.30779 | 107.96071 | 27987 ft | 433 kts | 308° |
| 2026-04-20 12:33 | 35.32784 | 107.93326 | 28247 ft | 434 kts | 309° |
| 2026-04-20 12:33 | 35.34802 | 107.90572 | 28504 ft | 435 kts | 309° |
| 2026-04-20 12:34 | 35.36792 | 107.87845 | 28765 ft | 435 kts | 309° |
| 2026-04-20 12:34 | 35.38799 | 107.85072 | 29022 ft | 435 kts | 308° |
| 2026-04-20 12:34 | 35.40822 | 107.82282 | 29288 ft | 435 kts | 308° |
| 2026-04-20 12:34 | 35.42828 | 107.79525 | 29554 ft | 435 kts | 308° |
| 2026-04-20 12:35 | 35.44844 | 107.76764 | 29817 ft | 435 kts | 309° |
| 2026-04-20 12:35 | 35.46860 | 107.74015 | 30084 ft | 435 kts | 310° |
| 2026-04-20 12:35 | 35.49047 | 107.71465 | 30346 ft | 438 kts | 317° |
| 2026-04-20 12:35 | 35.51641 | 107.69450 | 30604 ft | 445 kts | 332° |
| 2026-04-20 12:36 | 35.54628 | 107.68347 | 30880 ft | 452 kts | 343° |
| 2026-04-20 12:36 | 35.57711 | 107.67635 | 31150 ft | 452 kts | 344° |
| 2026-04-20 12:36 | 35.60761 | 107.66899 | 31410 ft | 450 kts | 342° |
| 2026-04-20 12:36 | 35.63823 | 107.66101 | 31672 ft | 449 kts | 342° |
| 2026-04-20 12:37 | 35.66871 | 107.65302 | 31933 ft | 447 kts | 342° |
| 2026-04-20 12:37 | 35.69936 | 107.64476 | 32183 ft | 444 kts | 339° |
| 2026-04-20 12:37 | 35.72763 | 107.63100 | 32232 ft | 434 kts | 324° |
| 2026-04-20 12:37 | 35.75223 | 107.60973 | 32247 ft | 433 kts | 317° |
| 2026-04-20 12:38 | 35.79377 | 107.55756 | 32231 ft | 422 kts | 296° |
| 2026-04-20 12:38 | 35.80424 | 107.52428 | 32245 ft | 417 kts | 283° |
| 2026-04-20 12:38 | 35.81117 | 107.49020 | 32244 ft | 416 kts | 284° |
| 2026-04-20 12:39 | 35.83561 | 107.38838 | 32239 ft | 413 kts | 286° |
| 2026-04-20 12:40 | 35.85162 | 107.32028 | 32236 ft | 412 kts | 284° |
| 2026-04-20 12:40 | 35.86704 | 107.25243 | 32233 ft | 412 kts | 284° |
| 2026-04-20 12:41 | 35.88225 | 107.18456 | 32233 ft | 412 kts | 284° |
| 2026-04-20 12:41 | 35.89758 | 107.11655 | 32230 ft | 415 kts | 284° |
| 2026-04-20 12:42 | 35.91215 | 107.04766 | 32225 ft | 415 kts | 283° |
| 2026-04-20 12:42 | 35.92608 | 106.97923 | 32227 ft | 412 kts | 283° |
| 2026-04-20 12:43 | 35.94014 | 106.91071 | 32223 ft | 410 kts | 283° |
| 2026-04-20 12:43 | 35.95395 | 106.84299 | 32220 ft | 409 kts | 283° |
| 2026-04-20 12:44 | 35.96777 | 106.77501 | 32217 ft | 411 kts | 283° |
| 2026-04-20 12:44 | 35.98156 | 106.70675 | 32218 ft | 412 kts | 283° |
| 2026-04-20 12:45 | 35.99554 | 106.63825 | 32215 ft | 410 kts | 283° |
| 2026-04-20 12:45 | 36.00935 | 106.57000 | 32221 ft | 410 kts | 283° |
| 2026-04-20 12:46 | 36.02296 | 106.50188 | 32223 ft | 411 kts | 283° |
| 2026-04-20 12:46 | 36.03677 | 106.43330 | 32226 ft | 414 kts | 283° |
| 2026-04-20 12:47 | 36.05069 | 106.36460 | 32216 ft | 414 kts | 283° |
| 2026-04-20 12:47 | 36.06456 | 106.29577 | 32217 ft | 411 kts | 282° |
| 2026-04-20 12:48 | 36.07810 | 106.22744 | 32214 ft | 410 kts | 282° |
| 2026-04-20 12:48 | 36.09255 | 106.15943 | 32211 ft | 410 kts | 284° |
| 2026-04-20 12:49 | 36.10777 | 106.09193 | 32199 ft | 408 kts | 284° |
| 2026-04-20 12:49 | 36.12277 | 106.02463 | 32207 ft | 409 kts | 284° |
| 2026-04-20 12:50 | 36.13783 | 105.95668 | 32200 ft | 412 kts | 284° |
| 2026-04-20 12:50 | 36.15282 | 105.88844 | 32206 ft | 411 kts | 284° |
| 2026-04-20 12:51 | 36.16767 | 105.82051 | 32190 ft | 407 kts | 284° |
| 2026-04-20 12:51 | 36.18247 | 105.75304 | 32195 ft | 409 kts | 284° |
| 2026-04-20 12:52 | 36.19733 | 105.68520 | 32182 ft | 411 kts | 284° |
| 2026-04-20 12:52 | 36.21213 | 105.61725 | 32197 ft | 410 kts | 283° |
| 2026-04-20 12:53 | 36.22693 | 105.54929 | 32185 ft | 408 kts | 283° |
| 2026-04-20 12:53 | 36.24164 | 105.48153 | 32192 ft | 410 kts | 283° |
| 2026-04-20 12:54 | 36.25616 | 105.41336 | 32190 ft | 411 kts | 283° |
| 2026-04-20 12:54 | 36.27101 | 105.34541 | 32190 ft | 408 kts | 283° |
| 2026-04-20 12:55 | 36.28539 | 105.27741 | 32191 ft | 409 kts | 283° |
| 2026-04-20 12:55 | 36.29993 | 105.20963 | 32183 ft | 410 kts | 283° |
| 2026-04-20 12:56 | 36.31462 | 105.14134 | 32175 ft | 409 kts | 283° |
| 2026-04-20 12:56 | 36.32916 | 105.07359 | 32187 ft | 408 kts | 283° |
| 2026-04-20 12:57 | 36.34363 | 105.00549 | 32178 ft | 409 kts | 282° |
| 2026-04-20 12:57 | 36.35799 | 104.93780 | 32182 ft | 406 kts | 282° |
| 2026-04-20 12:58 | 36.37244 | 104.87012 | 32190 ft | 407 kts | 283° |
| 2026-04-20 12:58 | 36.38684 | 104.80207 | 32190 ft | 411 kts | 283° |
| 2026-04-20 12:59 | 36.40124 | 104.73381 | 32181 ft | 411 kts | 282° |
| 2026-04-20 12:59 | 36.41559 | 104.66565 | 32184 ft | 407 kts | 283° |
| 2026-04-20 13:00 | 36.42971 | 104.59738 | 32195 ft | 410 kts | 283° |
| 2026-04-20 13:00 | 36.44395 | 104.52910 | 32194 ft | 412 kts | 283° |
| 2026-04-20 13:01 | 36.45826 | 104.46063 | 32197 ft | 411 kts | 282° |
| 2026-04-20 13:01 | 36.47245 | 104.39198 | 32196 ft | 412 kts | 283° |
| 2026-04-20 13:02 | 36.49152 | 104.32452 | 32190 ft | 417 kts | 292° |
| 2026-04-20 13:02 | 36.51844 | 104.26135 | 32190 ft | 414 kts | 294° |
| 2026-04-20 13:03 | 36.54547 | 104.19772 | 32192 ft | 417 kts | 294° |
| 2026-04-20 13:03 | 36.57227 | 104.13424 | 32186 ft | 417 kts | 294° |
| 2026-04-20 13:04 | 36.59922 | 104.07052 | 32189 ft | 416 kts | 294° |
| 2026-04-20 13:04 | 36.62623 | 104.00685 | 32193 ft | 418 kts | 294° |
| 2026-04-20 13:05 | 36.65382 | 103.94338 | 32203 ft | 417 kts | 294° |
| 2026-04-20 13:05 | 36.68144 | 103.88006 | 32202 ft | 418 kts | 294° |
| 2026-04-20 13:06 | 36.70898 | 103.81650 | 32208 ft | 418 kts | 294° |
| 2026-04-20 13:06 | 36.73642 | 103.75305 | 32213 ft | 417 kts | 294° |
| 2026-04-20 13:07 | 36.76392 | 103.68950 | 32227 ft | 419 kts | 295° |
| 2026-04-20 13:07 | 36.79187 | 103.62528 | 32231 ft | 421 kts | 294° |
| 2026-04-20 13:08 | 36.81923 | 103.56138 | 32246 ft | 418 kts | 294° |
| 2026-04-20 13:08 | 36.84650 | 103.49783 | 32252 ft | 416 kts | 294° |
| 2026-04-20 13:09 | 36.87380 | 103.43423 | 32265 ft | 418 kts | 294° |
| 2026-04-20 13:09 | 36.90133 | 103.37013 | 32278 ft | 418 kts | 294° |
| 2026-04-20 13:10 | 36.92869 | 103.30617 | 32281 ft | 419 kts | 294° |
| 2026-04-20 13:10 | 36.95769 | 103.24341 | 32288 ft | 421 kts | 298° |
| 2026-04-20 13:11 | 36.98921 | 103.18197 | 32288 ft | 418 kts | 298° |
| 2026-04-20 13:11 | 37.02039 | 103.12063 | 32284 ft | 422 kts | 298° |
| 2026-04-20 13:12 | 37.05182 | 103.05846 | 32278 ft | 423 kts | 297° |
| 2026-04-20 13:12 | 37.08302 | 102.99638 | 32268 ft | 419 kts | 297° |
| 2026-04-20 13:13 | 37.11367 | 102.93502 | 32258 ft | 418 kts | 298° |
| 2026-04-20 13:13 | 37.14450 | 102.87314 | 32270 ft | 422 kts | 298° |
| 2026-04-20 13:14 | 37.17573 | 102.81053 | 32282 ft | 423 kts | 297° |
| 2026-04-20 13:14 | 37.20665 | 102.74869 | 32280 ft | 419 kts | 297° |
| 2026-04-20 13:15 | 37.23727 | 102.68695 | 32296 ft | 417 kts | 297° |
| 2026-04-20 13:15 | 37.26814 | 102.62478 | 32293 ft | 420 kts | 297° |
| 2026-04-20 13:16 | 37.29902 | 102.56222 | 32285 ft | 423 kts | 298° |
| 2026-04-20 13:16 | 37.32991 | 102.49996 | 32284 ft | 422 kts | 297° |
| 2026-04-20 13:17 | 37.35536 | 102.43458 | 32300 ft | 414 kts | 285° |
| 2026-04-20 13:17 | 37.37135 | 102.36530 | 32311 ft | 415 kts | 283° |
| 2026-04-20 13:18 | 37.38613 | 102.29519 | 32331 ft | 418 kts | 282° |
| 2026-04-20 13:18 | 37.40066 | 102.22469 | 32347 ft | 417 kts | 282° |
| 2026-04-20 13:19 | 37.41479 | 102.15430 | 32334 ft | 417 kts | 282° |
| 2026-04-20 13:19 | 37.42862 | 102.08368 | 32329 ft | 417 kts | 281° |
| 2026-04-20 13:20 | 37.44237 | 102.01288 | 32335 ft | 418 kts | 282° |
| 2026-04-20 13:20 | 37.45607 | 101.94212 | 32352 ft | 416 kts | 281° |
| 2026-04-20 13:21 | 37.46965 | 101.87163 | 32383 ft | 415 kts | 281° |
| 2026-04-20 13:21 | 37.48330 | 101.80115 | 32407 ft | 416 kts | 281° |
| 2026-04-20 13:22 | 37.49695 | 101.73073 | 32415 ft | 417 kts | 282° |
| 2026-04-20 13:22 | 37.51673 | 101.66239 | 32385 ft | 419 kts | 293° |
| 2026-04-20 13:23 | 37.54425 | 101.59779 | 32346 ft | 420 kts | 294° |
| 2026-04-20 13:23 | 37.57162 | 101.53275 | 32327 ft | 422 kts | 294° |
| 2026-04-20 13:24 | 37.59893 | 101.46780 | 32329 ft | 421 kts | 294° |
| 2026-04-20 13:24 | 37.62630 | 101.40339 | 32334 ft | 419 kts | 294° |
| 2026-04-20 13:25 | 37.65398 | 101.33821 | 32348 ft | 421 kts | 294° |
| 2026-04-20 13:25 | 37.68147 | 101.27309 | 32352 ft | 421 kts | 294° |
| 2026-04-20 13:26 | 37.70883 | 101.20839 | 32366 ft | 420 kts | 293° |
| 2026-04-20 13:26 | 37.73613 | 101.14351 | 32381 ft | 419 kts | 293° |
| 2026-04-20 13:27 | 37.76357 | 101.07834 | 32375 ft | 422 kts | 293° |
| 2026-04-20 13:27 | 37.79113 | 101.01268 | 32384 ft | 423 kts | 294° |
| 2026-04-20 13:28 | 37.81846 | 100.94762 | 32394 ft | 418 kts | 293° |
| 2026-04-20 13:28 | 37.84602 | 100.88341 | 32397 ft | 418 kts | 295° |
| 2026-04-20 13:29 | 37.87483 | 100.81944 | 32402 ft | 420 kts | 295° |
| 2026-04-20 13:29 | 37.90366 | 100.75507 | 32404 ft | 421 kts | 295° |
| 2026-04-20 13:30 | 37.93224 | 100.69088 | 32428 ft | 419 kts | 295° |
| 2026-04-20 13:30 | 37.96083 | 100.62656 | 32426 ft | 419 kts | 294° |
| 2026-04-20 13:31 | 37.98914 | 100.56285 | 32419 ft | 418 kts | 295° |
| 2026-04-20 13:31 | 38.01755 | 100.49853 | 32411 ft | 418 kts | 295° |
| 2026-04-20 13:32 | 38.04581 | 100.43467 | 32407 ft | 418 kts | 294° |
| 2026-04-20 13:32 | 38.07416 | 100.37054 | 32406 ft | 415 kts | 294° |
| 2026-04-20 13:33 | 38.10215 | 100.30634 | 32404 ft | 418 kts | 294° |
| 2026-04-20 13:33 | 38.13049 | 100.24171 | 32389 ft | 419 kts | 294° |
| 2026-04-20 13:34 | 38.15865 | 100.17728 | 32395 ft | 418 kts | 293° |
| 2026-04-20 13:34 | 38.18695 | 100.11269 | 32396 ft | 419 kts | 294° |
| 2026-04-20 13:35 | 38.21510 | 100.04835 | 32381 ft | 417 kts | 294° |
| 2026-04-20 13:35 | 38.24341 | 99.98392 | 32398 ft | 420 kts | 294° |
| 2026-04-20 13:36 | 38.27164 | 99.91907 | 32376 ft | 419 kts | 294° |
| 2026-04-20 13:36 | 38.29956 | 99.85458 | 32382 ft | 418 kts | 294° |
| 2026-04-20 13:37 | 38.32742 | 99.79018 | 32384 ft | 415 kts | 293° |
| 2026-04-20 13:37 | 38.35513 | 99.72613 | 32378 ft | 411 kts | 294° |
| 2026-04-20 13:38 | 38.38261 | 99.66221 | 32391 ft | 414 kts | 294° |
| 2026-04-20 13:38 | 38.41016 | 99.59744 | 32390 ft | 419 kts | 292° |
| 2026-04-20 13:39 | 38.43795 | 99.53250 | 32379 ft | 417 kts | 292° |
| 2026-04-20 13:39 | 38.46545 | 99.46822 | 32409 ft | 416 kts | 293° |
| 2026-04-20 13:40 | 38.49334 | 99.40304 | 32404 ft | 419 kts | 293° |
| 2026-04-20 13:40 | 38.52091 | 99.33818 | 32387 ft | 418 kts | 292° |
| 2026-04-20 13:41 | 38.54880 | 99.27304 | 32366 ft | 415 kts | 293° |
| 2026-04-20 13:41 | 38.57636 | 99.20843 | 32353 ft | 416 kts | 292° |
| 2026-04-20 13:42 | 38.60368 | 99.14347 | 32376 ft | 415 kts | 293° |
| 2026-04-20 13:42 | 38.64455 | 99.04614 | 32419 ft | 417 kts | 293° |
| 2026-04-20 13:43 | 38.67221 | 98.98105 | 32425 ft | 418 kts | 293° |
| 2026-04-20 13:43 | 38.69973 | 98.91585 | 32412 ft | 420 kts | 293° |
| 2026-04-20 13:44 | 38.72734 | 98.85003 | 32376 ft | 420 kts | 292° |
| 2026-04-20 13:44 | 38.75476 | 98.78429 | 32366 ft | 421 kts | 293° |
| 2026-04-20 13:45 | 38.78232 | 98.71817 | 32378 ft | 421 kts | 293° |
| 2026-04-20 13:45 | 38.80987 | 98.65234 | 32366 ft | 422 kts | 293° |
| 2026-04-20 13:46 | 38.83763 | 98.58566 | 32409 ft | 424 kts | 293° |
| 2026-04-20 13:46 | 38.86512 | 98.51961 | 32427 ft | 423 kts | 293° |
| 2026-04-20 13:47 | 38.89279 | 98.45286 | 32426 ft | 423 kts | 293° |
| 2026-04-20 13:47 | 38.92027 | 98.38628 | 32397 ft | 424 kts | 293° |
| 2026-04-20 13:48 | 38.94770 | 98.31973 | 32367 ft | 423 kts | 293° |
| 2026-04-20 13:48 | 38.97524 | 98.25278 | 32329 ft | 423 kts | 293° |
| 2026-04-20 13:49 | 39.00254 | 98.18621 | 32329 ft | 425 kts | 292° |
| 2026-04-20 13:49 | 39.03005 | 98.11910 | 32376 ft | 426 kts | 293° |
| 2026-04-20 13:50 | 39.05754 | 98.05183 | 32387 ft | 427 kts | 293° |
| 2026-04-20 13:50 | 39.08520 | 97.98417 | 32411 ft | 427 kts | 293° |
| 2026-04-20 13:51 | 39.11272 | 97.91658 | 32401 ft | 429 kts | 293° |
| 2026-04-20 13:51 | 39.14056 | 97.84818 | 32376 ft | 432 kts | 293° |
| 2026-04-20 13:52 | 39.16819 | 97.77994 | 32344 ft | 431 kts | 293° |
| 2026-04-20 13:52 | 39.19583 | 97.71173 | 32338 ft | 428 kts | 293° |
| 2026-04-20 13:53 | 39.22319 | 97.64414 | 32338 ft | 428 kts | 293° |
| 2026-04-20 13:53 | 39.25078 | 97.57581 | 32346 ft | 430 kts | 293° |
| 2026-04-20 13:54 | 39.27836 | 97.50796 | 32347 ft | 432 kts | 292° |
| 2026-04-20 13:54 | 39.30620 | 97.43897 | 32362 ft | 433 kts | 293° |
| 2026-04-20 13:55 | 39.33365 | 97.36995 | 32113 ft | 439 kts | 292° |
| 2026-04-20 13:55 | 39.34777 | 97.33447 | 31564 ft | 443 kts | 292° |
| 2026-04-20 13:55 | 39.36172 | 97.29961 | 31038 ft | 438 kts | 292° |
| 2026-04-20 13:56 | 39.37552 | 97.26502 | 30513 ft | 433 kts | 292° |
| 2026-04-20 13:56 | 39.38927 | 97.23048 | 29977 ft | 431 kts | 292° |
| 2026-04-20 13:56 | 39.40292 | 97.19624 | 29458 ft | 436 kts | 293° |
| 2026-04-20 13:56 | 39.41673 | 97.16133 | 28942 ft | 441 kts | 293° |
| 2026-04-20 13:57 | 39.43070 | 97.12604 | 28421 ft | 444 kts | 293° |
| 2026-04-20 13:57 | 39.44480 | 97.09055 | 27904 ft | 447 kts | 294° |
| 2026-04-20 13:57 | 39.45911 | 97.05445 | 27383 ft | 448 kts | 294° |
| 2026-04-20 13:57 | 39.47330 | 97.01884 | 26863 ft | 450 kts | 294° |
| 2026-04-20 13:58 | 39.48759 | 96.98317 | 26346 ft | 447 kts | 294° |
| 2026-04-20 13:58 | 39.50179 | 96.94785 | 25830 ft | 440 kts | 294° |
| 2026-04-20 13:58 | 39.51572 | 96.91314 | 25318 ft | 434 kts | 294° |
| 2026-04-20 13:58 | 39.52963 | 96.87830 | 24801 ft | 432 kts | 294° |
| 2026-04-20 13:59 | 39.54328 | 96.84401 | 24298 ft | 431 kts | 295° |
| 2026-04-20 13:59 | 39.55695 | 96.80970 | 23792 ft | 430 kts | 295° |
| 2026-04-20 13:59 | 39.57060 | 96.77552 | 23294 ft | 428 kts | 295° |
| 2026-04-20 13:59 | 39.58411 | 96.74150 | 22814 ft | 425 kts | 295° |
| 2026-04-20 14:00 | 39.59748 | 96.70769 | 22339 ft | 423 kts | 295° |
| 2026-04-20 14:00 | 39.61096 | 96.67349 | 21858 ft | 424 kts | 295° |
| 2026-04-20 14:00 | 39.62443 | 96.63943 | 21383 ft | 424 kts | 296° |
| 2026-04-20 14:00 | 39.63779 | 96.60572 | 20914 ft | 423 kts | 296° |
| 2026-04-20 14:01 | 39.65125 | 96.57223 | 20432 ft | 422 kts | 296° |
| 2026-04-20 14:01 | 39.66478 | 96.53863 | 19953 ft | 420 kts | 297° |
| 2026-04-20 14:01 | 39.67832 | 96.50485 | 19471 ft | 419 kts | 297° |
| 2026-04-20 14:01 | 39.69166 | 96.47157 | 18987 ft | 420 kts | 297° |
| 2026-04-20 14:02 | 39.70522 | 96.43770 | 18500 ft | 423 kts | 297° |
| 2026-04-20 14:02 | 39.71857 | 96.40391 | 18031 ft | 423 kts | 297° |
| 2026-04-20 14:02 | 39.73166 | 96.37022 | 17880 ft | 415 kts | 297° |
| 2026-04-20 14:02 | 39.74465 | 96.33700 | 17896 ft | 415 kts | 297° |
| 2026-04-20 14:03 | 39.75789 | 96.30363 | 17884 ft | 419 kts | 297° |
| 2026-04-20 14:03 | 39.77136 | 96.26966 | 17886 ft | 421 kts | 297° |
| 2026-04-20 14:03 | 39.78469 | 96.23611 | 17884 ft | 421 kts | 298° |
| 2026-04-20 14:03 | 39.79822 | 96.20220 | 17881 ft | 420 kts | 298° |
| 2026-04-20 14:04 | 39.81159 | 96.16889 | 17860 ft | 419 kts | 298° |
| 2026-04-20 14:04 | 39.82517 | 96.13529 | 17869 ft | 418 kts | 298° |
| 2026-04-20 14:04 | 39.83860 | 96.10216 | 17865 ft | 419 kts | 298° |
| 2026-04-20 14:04 | 39.85224 | 96.06854 | 17853 ft | 420 kts | 298° |
| 2026-04-20 14:05 | 39.86588 | 96.03476 | 17872 ft | 420 kts | 298° |
| 2026-04-20 14:05 | 39.87922 | 96.00141 | 17839 ft | 419 kts | 298° |
| 2026-04-20 14:05 | 39.89263 | 95.96777 | 17840 ft | 418 kts | 298° |
| 2026-04-20 14:05 | 39.90601 | 95.93401 | 17858 ft | 418 kts | 298° |
| 2026-04-20 14:06 | 39.91919 | 95.90070 | 17850 ft | 419 kts | 298° |
| 2026-04-20 14:06 | 39.93252 | 95.86689 | 17859 ft | 418 kts | 298° |
| 2026-04-20 14:06 | 39.94565 | 95.83353 | 17842 ft | 419 kts | 298° |
| 2026-04-20 14:06 | 39.95909 | 95.79936 | 17712 ft | 423 kts | 298° |
| 2026-04-20 14:07 | 39.97224 | 95.76540 | 17395 ft | 423 kts | 297° |
| 2026-04-20 14:07 | 39.98500 | 95.73080 | 17009 ft | 419 kts | 296° |
| 2026-04-20 14:07 | 39.99736 | 95.69706 | 16634 ft | 414 kts | 296° |
| 2026-04-20 14:07 | 40.00968 | 95.66367 | 16260 ft | 410 kts | 296° |
| 2026-04-20 14:08 | 40.02203 | 95.63019 | 15884 ft | 406 kts | 297° |
| 2026-04-20 14:08 | 40.03420 | 95.59708 | 15508 ft | 403 kts | 296° |
| 2026-04-20 14:08 | 40.04623 | 95.56428 | 15137 ft | 400 kts | 297° |
| 2026-04-20 14:08 | 40.05814 | 95.53183 | 14768 ft | 397 kts | 297° |
| 2026-04-20 14:09 | 40.07068 | 95.50030 | 14400 ft | 393 kts | 301° |
| 2026-04-20 14:09 | 40.08487 | 95.47006 | 14022 ft | 388 kts | 307° |
| 2026-04-20 14:09 | 40.10166 | 95.44279 | 13647 ft | 377 kts | 313° |
| 2026-04-20 14:09 | 40.11855 | 95.41769 | 13276 ft | 368 kts | 313° |
| 2026-04-20 14:10 | 40.13528 | 95.39287 | 12985 ft | 356 kts | 313° |
| 2026-04-20 14:10 | 40.15123 | 95.36930 | 12737 ft | 344 kts | 313° |
| 2026-04-20 14:10 | 40.16686 | 95.34615 | 12484 ft | 334 kts | 313° |
| 2026-04-20 14:10 | 40.18215 | 95.32364 | 12231 ft | 324 kts | 313° |
| 2026-04-20 14:11 | 40.19679 | 95.30215 | 11982 ft | 315 kts | 313° |
| 2026-04-20 14:11 | 40.21121 | 95.28092 | 11726 ft | 307 kts | 313° |
| 2026-04-20 14:11 | 40.22514 | 95.26044 | 11472 ft | 299 kts | 313° |
| 2026-04-20 14:11 | 40.23886 | 95.24023 | 11220 ft | 292 kts | 313° |
| 2026-04-20 14:12 | 40.25214 | 95.22071 | 10975 ft | 286 kts | 313° |
| 2026-04-20 14:12 | 40.26511 | 95.20164 | 10733 ft | 280 kts | 313° |
| 2026-04-20 14:12 | 40.27795 | 95.18275 | 10485 ft | 274 kts | 313° |
| 2026-04-20 14:12 | 40.28940 | 95.16343 | 10237 ft | 269 kts | 300° |
| 2026-04-20 14:13 | 40.29503 | 95.14034 | 9991 ft | 267 kts | 276° |
| 2026-04-20 14:13 | 40.29395 | 95.11607 | 9755 ft | 264 kts | 264° |
| 2026-04-20 14:13 | 40.29192 | 95.09250 | 9512 ft | 260 kts | 266° |
| 2026-04-20 14:13 | 40.29030 | 95.06924 | 9274 ft | 256 kts | 266° |
| 2026-04-20 14:14 | 40.28867 | 95.04637 | 9033 ft | 252 kts | 266° |
| 2026-04-20 14:14 | 40.28695 | 95.02361 | 8787 ft | 248 kts | 265° |
| 2026-04-20 14:14 | 40.28528 | 95.00146 | 8549 ft | 245 kts | 265° |
| 2026-04-20 14:14 | 40.28357 | 94.97932 | 8305 ft | 242 kts | 265° |
| 2026-04-20 14:15 | 40.28188 | 94.95774 | 8088 ft | 237 kts | 265° |
| 2026-04-20 14:15 | 40.28021 | 94.93670 | 8050 ft | 226 kts | 265° |
| 2026-04-20 14:15 | 40.27859 | 94.91628 | 8031 ft | 231 kts | 265° |
| 2026-04-20 14:15 | 40.27694 | 94.89518 | 7974 ft | 230 kts | 265° |
| 2026-04-20 14:16 | 40.27531 | 94.87456 | 7970 ft | 229 kts | 265° |
| 2026-04-20 14:16 | 40.27365 | 94.85370 | 7972 ft | 231 kts | 265° |
| 2026-04-20 14:16 | 40.27199 | 94.83299 | 7972 ft | 230 kts | 265° |
| 2026-04-20 14:16 | 40.27035 | 94.81232 | 7972 ft | 230 kts | 265° |
| 2026-04-20 14:17 | 40.26868 | 94.79127 | 7972 ft | 231 kts | 266° |
| 2026-04-20 14:17 | 40.26701 | 94.77045 | 7974 ft | 231 kts | 266° |
| 2026-04-20 14:17 | 40.26536 | 94.74970 | 7965 ft | 230 kts | 266° |
| 2026-04-20 14:17 | 40.26375 | 94.72893 | 7970 ft | 230 kts | 266° |
| 2026-04-20 14:18 | 40.26206 | 94.70778 | 7873 ft | 234 kts | 265° |
| 2026-04-20 14:18 | 40.26037 | 94.68682 | 7723 ft | 230 kts | 266° |
| 2026-04-20 14:18 | 40.25873 | 94.66623 | 7580 ft | 228 kts | 266° |
| 2026-04-20 14:18 | 40.25704 | 94.64551 | 7437 ft | 228 kts | 266° |
| 2026-04-20 14:19 | 40.25537 | 94.62495 | 7292 ft | 227 kts | 266° |
| 2026-04-20 14:19 | 40.25302 | 94.60481 | 7143 ft | 224 kts | 254° |
| 2026-04-20 14:19 | 40.24537 | 94.58762 | 6994 ft | 219 kts | 227° |
| 2026-04-20 14:19 | 40.23253 | 94.57722 | 6849 ft | 216 kts | 201° |
| 2026-04-20 14:20 | 40.21798 | 94.57480 | 6720 ft | 211 kts | 179° |
| 2026-04-20 14:20 | 40.20352 | 94.57697 | 6597 ft | 204 kts | 177° |
| 2026-04-20 14:20 | 40.18931 | 94.57879 | 6449 ft | 206 kts | 179° |
| 2026-04-20 14:20 | 40.17516 | 94.58054 | 6296 ft | 201 kts | 178° |
| 2026-04-20 14:21 | 40.16158 | 94.58387 | 6151 ft | 198 kts | 160° |
| 2026-04-20 14:21 | 40.15088 | 94.59497 | 6070 ft | 200 kts | 123° |
| 2026-04-20 14:21 | 40.14742 | 94.61251 | 6100 ft | 206 kts | 88° |
| 2026-04-20 14:21 | 40.14819 | 94.63130 | 6081 ft | 204 kts | 85° |
| 2026-04-20 14:22 | 40.14922 | 94.64979 | 5797 ft | 201 kts | 84° |
| 2026-04-20 14:22 | 40.15043 | 94.66711 | 5573 ft | 184 kts | 84° |
| 2026-04-20 14:22 | 40.15169 | 94.68350 | 5327 ft | 177 kts | 84° |
| 2026-04-20 14:22 | 40.15295 | 94.69940 | 5108 ft | 178 kts | 84° |
| 2026-04-20 14:23 | 40.15424 | 94.71542 | 4867 ft | 178 kts | 84° |
| 2026-04-20 14:23 | 40.15551 | 94.73144 | 4625 ft | 175 kts | 84° |
| 2026-04-20 14:23 | 40.15682 | 94.74695 | 4391 ft | 171 kts | 84° |
| 2026-04-20 14:23 | 40.15799 | 94.76247 | 4174 ft | 168 kts | 83° |
| 2026-04-20 14:24 | 40.15918 | 94.77766 | 3969 ft | 168 kts | 84° |
| 2026-04-20 14:24 | 40.16038 | 94.79297 | 3762 ft | 171 kts | 84° |
| 2026-04-20 14:24 | 40.16149 | 94.80672 | 3714 ft | 125 kts | 83° |
| 2026-04-20 14:24 | 40.16221 | 94.81572 | 3710 ft | 75 kts | 85° |
| 2026-04-20 14:25 | 40.16259 | 94.82039 | 3706 ft | 33 kts | 85° |
| 2026-04-20 14:25 | 40.16262 | 94.82232 | 3706 ft | 8 kts | 83° |
| 2026-04-20 14:25 | 40.16274 | 94.82236 | 3705 ft | 2 kts | 299° |
| 2026-04-20 14:25 | 40.16272 | 94.82189 | 3705 ft | 7 kts | 263° |
| 2026-04-20 14:26 | 40.16262 | 94.82087 | 3706 ft | 13 kts | 264° |
| 2026-04-20 14:26 | 40.16252 | 94.81962 | 3706 ft | 13 kts | 264° |
| 2026-04-20 14:26 | 40.16242 | 94.81832 | 3706 ft | 15 kts | 264° |
| 2026-04-20 14:26 | 40.16230 | 94.81684 | 3708 ft | 16 kts | 264° |
| 2026-04-20 14:27 | 40.16218 | 94.81522 | 3709 ft | 18 kts | 264° |
| 2026-04-20 14:27 | 40.16211 | 94.81389 | 3710 ft | 10 kts | 283° |
| 2026-04-20 14:27 | 40.16274 | 94.81338 | 3706 ft | 13 kts | 353° |
| 2026-04-20 14:27 | 40.16377 | 94.81325 | 3701 ft | 15 kts | 355° |
| 2026-04-20 14:28 | 40.16450 | 94.81282 | 3699 ft | 10 kts | 284° |
| 2026-04-20 14:28 | 40.16445 | 94.81194 | 3701 ft | 8 kts | 264° |
| 2026-04-20 14:28 | 40.16438 | 94.81105 | 3702 ft | 11 kts | 264° |
| 2026-04-20 14:28 | 40.16428 | 94.80972 | 3702 ft | 17 kts | 264° |
| 2026-04-20 14:29 | 40.16414 | 94.80802 | 3702 ft | 18 kts | 264° |
| 2026-04-20 14:29 | 40.16409 | 94.80743 | 3701 ft | 0 kts | 263° |
| 2026-04-20 14:30 | 40.16409 | 94.80740 | 3701 ft | 1 kts | 263° |
| 2026-04-20 14:31 | 40.16410 | 94.80717 | 3701 ft | 5 kts | 289° |
| 2026-04-20 14:31 | 40.16452 | 94.80690 | 3699 ft | 9 kts | 352° |
| 2026-04-20 14:31 | 40.16501 | 94.80682 | 3696 ft | 3 kts | 354° |
| 2026-04-20 14:31 | 40.16504 | 94.80681 | 3696 ft | 0 kts | 354° |